aviador You're here:

OMRK Decoded Metar

RAS AL KHAIMAH in UNITED ARAB EMIRATES
Report Time2018-05-21 20:00:00
UTC Time2018-05-21 20:38:28
Flight Rules vfr VFR
Wind260° at 03 kt
W.Decomp.*RWY 34: 0.5 kt HW 3 kt LCW
W.Rank260° ranks 23
Current wind is below 260° avg. (4.6)
Visibility9999 m
Phenomena:N/A
Clouds:N/A
Expected CloudBase > 6,400 ft AGL from Temp-Dew spread
CeilingNone
Temp25°C (ISA +10)
Dew Point09°C (36% RH)
AAT23.7°C
QNH1008 hPa
Density Alt1,608 ft
Elevation102 ft
Report Wrong Elevation
Raw Report
METAR OMRK 212000Z 26003KT CAVOK 25/09 Q1008 A2978=

Extra information for OMRK:More info

Metar Taf Metar & Taf Last 4 Metars F.Rules Stats Wind Profile Meteogram Temp Stats Airport Information Weather charts Add Link Nearby VenuesMetar ALERT Operation Metar Decoded Social comments